sensor_id;sensor_type;location;lat;lon;timestamp;P1;durP1;ratioP1;P2;durP2;ratioP2
58982;SDS011;44771;49.982;8.560;2023-05-23T00:01:30;93.05;;;49.15;;
58982;SDS011;44771;49.982;8.560;2023-05-23T00:06:32;110.47;;;53.67;;
58982;SDS011;44771;49.982;8.560;2023-05-23T00:11:34;96.10;;;49.10;;
58982;SDS011;44771;49.982;8.560;2023-05-23T00:16:37;92.55;;;48.00;;
58982;SDS011;44771;49.982;8.560;2023-05-23T00:21:40;94.07;;;47.33;;
58982;SDS011;44771;49.982;8.560;2023-05-23T00:26:42;83.60;;;45.95;;
58982;SDS011;44771;49.982;8.560;2023-05-23T00:31:45;83.97;;;44.03;;
58982;SDS011;44771;49.982;8.560;2023-05-23T00:36:48;85.65;;;43.97;;
58982;SDS011;44771;49.982;8.560;2023-05-23T00:41:53;82.25;;;42.08;;
58982;SDS011;44771;49.982;8.560;2023-05-23T00:46:56;74.15;;;43.58;;
58982;SDS011;44771;49.982;8.560;2023-05-23T00:52:01;73.30;;;43.40;;
58982;SDS011;44771;49.982;8.560;2023-05-23T00:57:06;70.60;;;40.70;;
58982;SDS011;44771;49.982;8.560;2023-05-23T01:02:10;64.47;;;40.13;;
58982;SDS011;44771;49.982;8.560;2023-05-23T01:07:15;67.93;;;39.78;;
58982;SDS011;44771;49.982;8.560;2023-05-23T01:12:19;73.60;;;43.10;;
58982;SDS011;44771;49.982;8.560;2023-05-23T01:17:31;66.28;;;41.80;;
58982;SDS011;44771;49.982;8.560;2023-05-23T01:22:48;63.40;;;39.30;;
58982;SDS011;44771;49.982;8.560;2023-05-23T01:28:04;64.85;;;41.67;;
58982;SDS011;44771;49.982;8.560;2023-05-23T01:33:08;63.30;;;40.25;;
58982;SDS011;44771;49.982;8.560;2023-05-23T01:38:12;55.95;;;37.88;;
58982;SDS011;44771;49.982;8.560;2023-05-23T01:43:16;68.60;;;41.33;;
58982;SDS011;44771;49.982;8.560;2023-05-23T01:48:18;59.88;;;38.72;;
58982;SDS011;44771;49.982;8.560;2023-05-23T01:53:22;59.88;;;38.35;;
58982;SDS011;44771;49.982;8.560;2023-05-23T01:58:26;56.88;;;37.92;;
58982;SDS011;44771;49.982;8.560;2023-05-23T02:03:28;63.28;;;41.47;;
58982;SDS011;44771;49.982;8.560;2023-05-23T02:08:30;59.42;;;40.03;;
58982;SDS011;44771;49.982;8.560;2023-05-23T02:13:33;64.18;;;42.03;;
58982;SDS011;44771;49.982;8.560;2023-05-23T02:18:38;61.15;;;40.22;;
58982;SDS011;44771;49.982;8.560;2023-05-23T02:23:40;67.75;;;41.42;;
58982;SDS011;44771;49.982;8.560;2023-05-23T02:28:43;52.95;;;35.35;;
58982;SDS011;44771;49.982;8.560;2023-05-23T02:33:45;58.78;;;36.78;;
58982;SDS011;44771;49.982;8.560;2023-05-23T02:38:47;57.10;;;35.55;;
58982;SDS011;44771;49.982;8.560;2023-05-23T02:43:50;49.78;;;33.97;;
58982;SDS011;44771;49.982;8.560;2023-05-23T02:48:52;46.65;;;33.60;;
58982;SDS011;44771;49.982;8.560;2023-05-23T02:53:53;50.25;;;34.70;;
58982;SDS011;44771;49.982;8.560;2023-05-23T02:58:58;44.55;;;32.33;;
58982;SDS011;44771;49.982;8.560;2023-05-23T03:04:00;46.35;;;31.20;;
58982;SDS011;44771;49.982;8.560;2023-05-23T03:09:02;43.85;;;30.83;;
58982;SDS011;44771;49.982;8.560;2023-05-23T03:14:05;43.55;;;31.37;;
58982;SDS011;44771;49.982;8.560;2023-05-23T03:19:07;47.28;;;31.10;;
58982;SDS011;44771;49.982;8.560;2023-05-23T03:24:09;40.10;;;28.90;;
58982;SDS011;44771;49.982;8.560;2023-05-23T03:29:12;47.83;;;29.10;;
58982;SDS011;44771;49.982;8.560;2023-05-23T03:34:13;30.58;;;23.83;;
58982;SDS011;44771;49.982;8.560;2023-05-23T03:39:15;31.92;;;21.27;;
58982;SDS011;44771;49.982;8.560;2023-05-23T03:44:18;29.75;;;22.48;;
58982;SDS011;44771;49.982;8.560;2023-05-23T03:49:20;39.88;;;27.37;;
58982;SDS011;44771;49.982;8.560;2023-05-23T03:54:22;37.70;;;28.12;;
58982;SDS011;44771;49.982;8.560;2023-05-23T03:59:25;44.30;;;30.67;;
58982;SDS011;44771;49.982;8.560;2023-05-23T04:04:27;44.22;;;31.80;;
58982;SDS011;44771;49.982;8.560;2023-05-23T04:09:29;46.33;;;32.40;;
58982;SDS011;44771;49.982;8.560;2023-05-23T04:14:32;56.63;;;32.92;;
58982;SDS011;44771;49.982;8.560;2023-05-23T04:19:34;47.13;;;30.45;;
58982;SDS011;44771;49.982;8.560;2023-05-23T04:24:36;50.10;;;32.75;;
58982;SDS011;44771;49.982;8.560;2023-05-23T04:29:39;50.20;;;32.60;;
58982;SDS011;44771;49.982;8.560;2023-05-23T04:34:41;49.90;;;32.15;;
58982;SDS011;44771;49.982;8.560;2023-05-23T04:39:43;38.20;;;27.75;;
58982;SDS011;44771;49.982;8.560;2023-05-23T04:44:46;35.13;;;26.17;;
58982;SDS011;44771;49.982;8.560;2023-05-23T04:49:48;36.50;;;26.27;;
58982;SDS011;44771;49.982;8.560;2023-05-23T04:54:49;36.80;;;26.05;;
58982;SDS011;44771;49.982;8.560;2023-05-23T04:59:52;35.75;;;25.73;;
58982;SDS011;44771;49.982;8.560;2023-05-23T05:04:54;39.30;;;27.60;;
58982;SDS011;44771;49.982;8.560;2023-05-23T05:09:56;37.03;;;25.27;;
58982;SDS011;44771;49.982;8.560;2023-05-23T05:15:03;37.28;;;26.58;;
58982;SDS011;44771;49.982;8.560;2023-05-23T05:20:07;37.00;;;27.58;;
58982;SDS011;44771;49.982;8.560;2023-05-23T05:25:10;37.13;;;27.50;;
58982;SDS011;44771;49.982;8.560;2023-05-23T05:30:13;30.27;;;24.63;;
58982;SDS011;44771;49.982;8.560;2023-05-23T05:35:15;35.03;;;25.15;;
58982;SDS011;44771;49.982;8.560;2023-05-23T05:40:17;31.77;;;25.85;;
58982;SDS011;44771;49.982;8.560;2023-05-23T05:45:20;32.08;;;25.60;;
58982;SDS011;44771;49.982;8.560;2023-05-23T05:50:22;29.70;;;25.20;;
58982;SDS011;44771;49.982;8.560;2023-05-23T05:55:24;30.67;;;25.83;;
58982;SDS011;44771;49.982;8.560;2023-05-23T06:00:27;30.27;;;25.08;;
58982;SDS011;44771;49.982;8.560;2023-05-23T06:05:29;28.77;;;23.75;;
58982;SDS011;44771;49.982;8.560;2023-05-23T06:10:31;25.70;;;22.58;;
58982;SDS011;44771;49.982;8.560;2023-05-23T06:15:34;24.27;;;21.67;;
58982;SDS011;44771;49.982;8.560;2023-05-23T06:20:36;24.50;;;20.02;;
58982;SDS011;44771;49.982;8.560;2023-05-23T06:25:38;22.62;;;20.33;;
58982;SDS011;44771;49.982;8.560;2023-05-23T06:30:41;19.12;;;17.23;;
58982;SDS011;44771;49.982;8.560;2023-05-23T06:35:43;18.12;;;16.23;;
58982;SDS011;44771;49.982;8.560;2023-05-23T06:40:47;19.05;;;17.12;;
58982;SDS011;44771;49.982;8.560;2023-05-23T06:45:52;19.25;;;17.40;;
58982;SDS011;44771;49.982;8.560;2023-05-23T06:50:54;19.67;;;17.85;;
58982;SDS011;44771;49.982;8.560;2023-05-23T06:55:56;18.23;;;16.33;;
58982;SDS011;44771;49.982;8.560;2023-05-23T07:00:59;19.65;;;17.87;;
58982;SDS011;44771;49.982;8.560;2023-05-23T07:06:01;20.50;;;18.52;;
58982;SDS011;44771;49.982;8.560;2023-05-23T07:11:03;20.65;;;18.50;;
58982;SDS011;44771;49.982;8.560;2023-05-23T07:16:07;21.17;;;19.10;;
58982;SDS011;44771;49.982;8.560;2023-05-23T07:21:08;23.52;;;20.17;;
58982;SDS011;44771;49.982;8.560;2023-05-23T07:26:10;23.90;;;21.15;;
58982;SDS011;44771;49.982;8.560;2023-05-23T07:31:13;23.73;;;21.23;;
58982;SDS011;44771;49.982;8.560;2023-05-23T07:36:15;21.92;;;19.92;;
58982;SDS011;44771;49.982;8.560;2023-05-23T07:41:17;21.27;;;19.17;;
58982;SDS011;44771;49.982;8.560;2023-05-23T07:46:20;18.83;;;16.98;;
58982;SDS011;44771;49.982;8.560;2023-05-23T07:51:21;19.92;;;18.05;;
58982;SDS011;44771;49.982;8.560;2023-05-23T07:56:23;19.85;;;17.80;;
58982;SDS011;44771;49.982;8.560;2023-05-23T08:01:26;19.15;;;17.50;;
58982;SDS011;44771;49.982;8.560;2023-05-23T08:06:28;18.05;;;16.60;;
58982;SDS011;44771;49.982;8.560;2023-05-23T08:11:30;16.05;;;14.75;;
58982;SDS011;44771;49.982;8.560;2023-05-23T08:16:34;17.50;;;16.20;;
58982;SDS011;44771;49.982;8.560;2023-05-23T08:21:36;16.37;;;14.98;;
58982;SDS011;44771;49.982;8.560;2023-05-23T08:26:37;15.70;;;14.40;;
58982;SDS011;44771;49.982;8.560;2023-05-23T08:31:41;15.70;;;14.30;;
58982;SDS011;44771;49.982;8.560;2023-05-23T08:36:43;17.33;;;15.73;;
58982;SDS011;44771;49.982;8.560;2023-05-23T08:41:48;15.93;;;14.65;;
58982;SDS011;44771;49.982;8.560;2023-05-23T08:46:52;14.98;;;13.98;;
58982;SDS011;44771;49.982;8.560;2023-05-23T08:51:54;16.35;;;14.93;;
58982;SDS011;44771;49.982;8.560;2023-05-23T08:57:01;16.62;;;15.25;;
58982;SDS011;44771;49.982;8.560;2023-05-23T09:02:04;14.63;;;13.52;;
58982;SDS011;44771;49.982;8.560;2023-05-23T09:07:10;16.30;;;15.05;;
58982;SDS011;44771;49.982;8.560;2023-05-23T09:12:12;14.95;;;13.85;;
58982;SDS011;44771;49.982;8.560;2023-05-23T09:17:16;14.63;;;13.62;;
58982;SDS011;44771;49.982;8.560;2023-05-23T09:22:22;15.70;;;14.60;;
58982;SDS011;44771;49.982;8.560;2023-05-23T09:27:24;14.52;;;13.43;;
58982;SDS011;44771;49.982;8.560;2023-05-23T09:32:29;15.13;;;13.93;;
58982;SDS011;44771;49.982;8.560;2023-05-23T09:37:34;15.27;;;14.07;;
58982;SDS011;44771;49.982;8.560;2023-05-23T09:42:40;15.23;;;14.00;;
58982;SDS011;44771;49.982;8.560;2023-05-23T09:47:49;16.00;;;14.70;;
58982;SDS011;44771;49.982;8.560;2023-05-23T09:52:51;14.98;;;13.68;;
58982;SDS011;44771;49.982;8.560;2023-05-23T09:57:53;16.23;;;14.65;;
58982;SDS011;44771;49.982;8.560;2023-05-23T10:03:04;15.30;;;13.98;;
58982;SDS011;44771;49.982;8.560;2023-05-23T10:08:15;15.05;;;13.75;;
58982;SDS011;44771;49.982;8.560;2023-05-23T10:13:25;14.20;;;13.00;;
58982;SDS011;44771;49.982;8.560;2023-05-23T10:18:36;13.80;;;12.73;;
58982;SDS011;44771;49.982;8.560;2023-05-23T10:28:46;13.43;;;12.35;;
58982;SDS011;44771;49.982;8.560;2023-05-23T10:33:54;15.65;;;14.13;;
58982;SDS011;44771;49.982;8.560;2023-05-23T10:39:03;15.77;;;14.52;;
58982;SDS011;44771;49.982;8.560;2023-05-23T10:44:11;14.30;;;13.13;;
58982;SDS011;44771;49.982;8.560;2023-05-23T10:49:18;14.73;;;13.30;;
58982;SDS011;44771;49.982;8.560;2023-05-23T10:54:20;15.75;;;14.43;;
58982;SDS011;44771;49.982;8.560;2023-05-23T10:59:22;15.65;;;14.32;;
58982;SDS011;44771;49.982;8.560;2023-05-23T11:04:29;18.05;;;15.82;;
58982;SDS011;44771;49.982;8.560;2023-05-23T11:09:31;16.95;;;15.65;;
58982;SDS011;44771;49.982;8.560;2023-05-23T11:19:57;16.27;;;14.87;;
58982;SDS011;44771;49.982;8.560;2023-05-23T11:25:05;16.95;;;14.95;;
58982;SDS011;44771;49.982;8.560;2023-05-23T11:30:09;17.23;;;15.70;;
58982;SDS011;44771;49.982;8.560;2023-05-23T11:35:17;15.53;;;14.10;;
58982;SDS011;44771;49.982;8.560;2023-05-23T11:40:26;16.40;;;14.77;;
58982;SDS011;44771;49.982;8.560;2023-05-23T11:45:30;15.07;;;13.68;;
58982;SDS011;44771;49.982;8.560;2023-05-23T11:50:34;16.60;;;15.20;;
58982;SDS011;44771;49.982;8.560;2023-05-23T11:55:50;15.40;;;13.82;;
58982;SDS011;44771;49.982;8.560;2023-05-23T12:00:57;13.15;;;12.20;;
58982;SDS011;44771;49.982;8.560;2023-05-23T12:06:02;13.68;;;12.68;;
58982;SDS011;44771;49.982;8.560;2023-05-23T12:11:09;13.98;;;12.70;;
58982;SDS011;44771;49.982;8.560;2023-05-23T12:16:14;13.32;;;12.25;;
58982;SDS011;44771;49.982;8.560;2023-05-23T12:21:25;14.20;;;12.68;;
58982;SDS011;44771;49.982;8.560;2023-05-23T12:26:46;13.07;;;12.18;;
58982;SDS011;44771;49.982;8.560;2023-05-23T12:31:49;11.65;;;10.85;;
58982;SDS011;44771;49.982;8.560;2023-05-23T12:36:55;10.52;;;9.93;;
58982;SDS011;44771;49.982;8.560;2023-05-23T12:42:17;13.07;;;12.18;;
58982;SDS011;44771;49.982;8.560;2023-05-23T12:47:19;13.32;;;12.40;;
58982;SDS011;44771;49.982;8.560;2023-05-23T12:52:22;13.13;;;12.23;;
58982;SDS011;44771;49.982;8.560;2023-05-23T12:57:24;13.55;;;12.65;;
58982;SDS011;44771;49.982;8.560;2023-05-23T13:02:26;13.93;;;13.02;;
58982;SDS011;44771;49.982;8.560;2023-05-23T13:07:30;14.60;;;13.38;;
58982;SDS011;44771;49.982;8.560;2023-05-23T13:12:32;14.38;;;13.27;;
58982;SDS011;44771;49.982;8.560;2023-05-23T13:17:34;13.32;;;12.52;;
58982;SDS011;44771;49.982;8.560;2023-05-23T13:22:37;13.60;;;12.63;;
58982;SDS011;44771;49.982;8.560;2023-05-23T13:27:39;13.75;;;12.73;;
58982;SDS011;44771;49.982;8.560;2023-05-23T13:32:41;13.48;;;12.48;;
58982;SDS011;44771;49.982;8.560;2023-05-23T13:37:44;14.65;;;13.40;;
58982;SDS011;44771;49.982;8.560;2023-05-23T13:42:47;12.75;;;11.70;;
58982;SDS011;44771;49.982;8.560;2023-05-23T13:47:51;14.93;;;13.73;;
58982;SDS011;44771;49.982;8.560;2023-05-23T13:52:54;15.02;;;13.80;;
58982;SDS011;44771;49.982;8.560;2023-05-23T13:57:58;17.02;;;14.13;;
58982;SDS011;44771;49.982;8.560;2023-05-23T14:03:03;15.85;;;14.40;;
58982;SDS011;44771;49.982;8.560;2023-05-23T14:08:06;15.23;;;13.85;;
58982;SDS011;44771;49.982;8.560;2023-05-23T14:13:08;16.50;;;14.82;;
58982;SDS011;44771;49.982;8.560;2023-05-23T14:18:12;15.23;;;14.02;;
58982;SDS011;44771;49.982;8.560;2023-05-23T14:23:17;16.77;;;14.80;;
58982;SDS011;44771;49.982;8.560;2023-05-23T14:28:25;17.20;;;15.30;;
58982;SDS011;44771;49.982;8.560;2023-05-23T14:33:26;17.20;;;15.48;;
58982;SDS011;44771;49.982;8.560;2023-05-23T14:38:30;17.15;;;15.55;;
58982;SDS011;44771;49.982;8.560;2023-05-23T14:43:32;18.08;;;16.50;;
58982;SDS011;44771;49.982;8.560;2023-05-23T14:48:34;18.83;;;16.80;;
58982;SDS011;44771;49.982;8.560;2023-05-23T14:53:37;17.85;;;16.08;;
58982;SDS011;44771;49.982;8.560;2023-05-23T14:58:42;18.10;;;16.37;;
58982;SDS011;44771;49.982;8.560;2023-05-23T15:03:44;24.73;;;17.23;;
58982;SDS011;44771;49.982;8.560;2023-05-23T15:08:47;20.37;;;18.48;;
58982;SDS011;44771;49.982;8.560;2023-05-23T15:13:52;17.70;;;15.85;;
58982;SDS011;44771;49.982;8.560;2023-05-23T15:18:59;18.52;;;16.73;;
58982;SDS011;44771;49.982;8.560;2023-05-23T15:24:03;17.65;;;14.82;;
58982;SDS011;44771;49.982;8.560;2023-05-23T15:29:06;17.48;;;15.75;;
58982;SDS011;44771;49.982;8.560;2023-05-23T15:34:07;17.92;;;16.25;;
58982;SDS011;44771;49.982;8.560;2023-05-23T15:39:12;18.10;;;16.40;;
58982;SDS011;44771;49.982;8.560;2023-05-23T15:44:17;21.75;;;18.35;;
58982;SDS011;44771;49.982;8.560;2023-05-23T15:49:22;19.08;;;17.12;;
58982;SDS011;44771;49.982;8.560;2023-05-23T15:54:28;18.67;;;16.95;;
58982;SDS011;44771;49.982;8.560;2023-05-23T15:59:30;18.70;;;17.00;;
58982;SDS011;44771;49.982;8.560;2023-05-23T16:04:32;17.75;;;14.68;;
58982;SDS011;44771;49.982;8.560;2023-05-23T16:09:37;17.80;;;16.27;;
58982;SDS011;44771;49.982;8.560;2023-05-23T16:14:40;18.55;;;16.77;;
58982;SDS011;44771;49.982;8.560;2023-05-23T16:19:41;16.83;;;15.40;;
58982;SDS011;44771;49.982;8.560;2023-05-23T16:24:44;16.08;;;14.77;;
58982;SDS011;44771;49.982;8.560;2023-05-23T16:29:46;16.27;;;15.02;;
58982;SDS011;44771;49.982;8.560;2023-05-23T16:34:48;15.88;;;14.57;;
58982;SDS011;44771;49.982;8.560;2023-05-23T16:39:56;15.90;;;14.60;;
58982;SDS011;44771;49.982;8.560;2023-05-23T16:44:58;15.45;;;13.85;;
58982;SDS011;44771;49.982;8.560;2023-05-23T16:50:00;15.77;;;14.63;;
58982;SDS011;44771;49.982;8.560;2023-05-23T16:55:03;16.58;;;15.07;;
58982;SDS011;44771;49.982;8.560;2023-05-23T17:00:06;17.08;;;15.35;;
58982;SDS011;44771;49.982;8.560;2023-05-23T17:05:11;15.32;;;13.90;;
58982;SDS011;44771;49.982;8.560;2023-05-23T17:10:22;15.80;;;14.10;;
58982;SDS011;44771;49.982;8.560;2023-05-23T17:15:24;15.35;;;14.07;;
58982;SDS011;44771;49.982;8.560;2023-05-23T17:20:25;13.57;;;12.55;;
58982;SDS011;44771;49.982;8.560;2023-05-23T17:25:29;15.35;;;14.15;;
58982;SDS011;44771;49.982;8.560;2023-05-23T17:30:30;13.77;;;12.70;;
58982;SDS011;44771;49.982;8.560;2023-05-23T17:35:32;14.75;;;13.27;;
58982;SDS011;44771;49.982;8.560;2023-05-23T17:40:35;14.87;;;13.40;;
58982;SDS011;44771;49.982;8.560;2023-05-23T17:45:37;15.10;;;13.98;;
58982;SDS011;44771;49.982;8.560;2023-05-23T17:50:39;14.05;;;12.98;;
58982;SDS011;44771;49.982;8.560;2023-05-23T17:55:42;14.82;;;13.30;;
58982;SDS011;44771;49.982;8.560;2023-05-23T18:00:44;14.70;;;13.32;;
58982;SDS011;44771;49.982;8.560;2023-05-23T18:05:46;14.02;;;12.93;;
58982;SDS011;44771;49.982;8.560;2023-05-23T18:10:49;15.65;;;14.25;;
58982;SDS011;44771;49.982;8.560;2023-05-23T18:15:51;14.75;;;13.40;;
58982;SDS011;44771;49.982;8.560;2023-05-23T18:20:52;16.70;;;14.45;;
58982;SDS011;44771;49.982;8.560;2023-05-23T18:25:56;15.95;;;13.60;;
58982;SDS011;44771;49.982;8.560;2023-05-23T18:30:57;15.70;;;13.90;;
58982;SDS011;44771;49.982;8.560;2023-05-23T18:35:59;15.13;;;13.77;;
58982;SDS011;44771;49.982;8.560;2023-05-23T18:41:03;15.38;;;14.02;;
58982;SDS011;44771;49.982;8.560;2023-05-23T18:46:04;13.88;;;12.63;;
58982;SDS011;44771;49.982;8.560;2023-05-23T18:51:06;15.20;;;14.00;;
58982;SDS011;44771;49.982;8.560;2023-05-23T18:56:09;14.15;;;12.80;;
58982;SDS011;44771;49.982;8.560;2023-05-23T19:01:11;14.85;;;13.30;;
58982;SDS011;44771;49.982;8.560;2023-05-23T19:06:13;16.75;;;15.15;;
58982;SDS011;44771;49.982;8.560;2023-05-23T19:11:16;16.42;;;14.90;;
58982;SDS011;44771;49.982;8.560;2023-05-23T19:16:18;14.30;;;13.18;;
58982;SDS011;44771;49.982;8.560;2023-05-23T19:21:20;16.77;;;14.90;;
58982;SDS011;44771;49.982;8.560;2023-05-23T19:26:24;14.70;;;13.48;;
58982;SDS011;44771;49.982;8.560;2023-05-23T19:31:26;14.25;;;12.90;;
58982;SDS011;44771;49.982;8.560;2023-05-23T19:36:28;14.02;;;12.65;;
58982;SDS011;44771;49.982;8.560;2023-05-23T19:41:31;14.77;;;13.55;;
58982;SDS011;44771;49.982;8.560;2023-05-23T19:46:33;14.48;;;13.27;;
58982;SDS011;44771;49.982;8.560;2023-05-23T19:51:35;15.40;;;13.80;;
58982;SDS011;44771;49.982;8.560;2023-05-23T19:56:38;15.98;;;14.63;;
58982;SDS011;44771;49.982;8.560;2023-05-23T20:01:40;14.82;;;13.62;;
58982;SDS011;44771;49.982;8.560;2023-05-23T20:06:42;16.37;;;14.82;;
58982;SDS011;44771;49.982;8.560;2023-05-23T20:11:45;20.27;;;15.75;;
58982;SDS011;44771;49.982;8.560;2023-05-23T20:16:47;15.38;;;13.88;;
58982;SDS011;44771;49.982;8.560;2023-05-23T20:21:48;15.40;;;13.80;;
58982;SDS011;44771;49.982;8.560;2023-05-23T20:26:51;15.30;;;13.95;;
58982;SDS011;44771;49.982;8.560;2023-05-23T20:31:53;15.93;;;14.23;;
58982;SDS011;44771;49.982;8.560;2023-05-23T20:36:55;15.35;;;14.23;;
58982;SDS011;44771;49.982;8.560;2023-05-23T20:41:58;14.98;;;13.15;;
58982;SDS011;44771;49.982;8.560;2023-05-23T20:47:00;17.17;;;15.57;;
58982;SDS011;44771;49.982;8.560;2023-05-23T20:52:02;14.63;;;13.50;;
58982;SDS011;44771;49.982;8.560;2023-05-23T20:57:05;16.12;;;14.63;;
58982;SDS011;44771;49.982;8.560;2023-05-23T21:02:07;20.92;;;15.23;;
58982;SDS011;44771;49.982;8.560;2023-05-23T21:07:09;16.30;;;14.73;;
58982;SDS011;44771;49.982;8.560;2023-05-23T21:12:12;16.00;;;14.18;;
58982;SDS011;44771;49.982;8.560;2023-05-23T21:17:14;21.27;;;13.45;;
58982;SDS011;44771;49.982;8.560;2023-05-23T21:22:16;22.00;;;15.30;;
58982;SDS011;44771;49.982;8.560;2023-05-23T21:27:19;15.80;;;14.15;;
58982;SDS011;44771;49.982;8.560;2023-05-23T21:32:21;16.85;;;12.60;;
58982;SDS011;44771;49.982;8.560;2023-05-23T21:37:23;25.60;;;15.00;;
58982;SDS011;44771;49.982;8.560;2023-05-23T21:42:26;18.48;;;13.73;;
58982;SDS011;44771;49.982;8.560;2023-05-23T21:47:28;16.48;;;12.88;;
58982;SDS011;44771;49.982;8.560;2023-05-23T21:52:29;16.45;;;14.15;;
58982;SDS011;44771;49.982;8.560;2023-05-23T21:57:32;15.60;;;14.05;;
58982;SDS011;44771;49.982;8.560;2023-05-23T22:02:34;15.15;;;13.55;;
58982;SDS011;44771;49.982;8.560;2023-05-23T22:07:36;16.35;;;13.20;;
58982;SDS011;44771;49.982;8.560;2023-05-23T22:12:39;16.92;;;13.80;;
58982;SDS011;44771;49.982;8.560;2023-05-23T22:17:41;16.87;;;13.05;;
58982;SDS011;44771;49.982;8.560;2023-05-23T22:22:43;18.52;;;15.50;;
58982;SDS011;44771;49.982;8.560;2023-05-23T22:27:46;13.50;;;12.13;;
58982;SDS011;44771;49.982;8.560;2023-05-23T22:32:48;14.43;;;12.73;;
58982;SDS011;44771;49.982;8.560;2023-05-23T22:37:50;20.08;;;15.13;;
58982;SDS011;44771;49.982;8.560;2023-05-23T22:42:53;18.75;;;14.40;;
58982;SDS011;44771;49.982;8.560;2023-05-23T22:47:54;18.25;;;13.50;;
58982;SDS011;44771;49.982;8.560;2023-05-23T22:52:56;16.60;;;13.52;;
58982;SDS011;44771;49.982;8.560;2023-05-23T22:57:59;19.08;;;14.45;;
58982;SDS011;44771;49.982;8.560;2023-05-23T23:03:01;20.48;;;13.93;;
58982;SDS011;44771;49.982;8.560;2023-05-23T23:08:03;18.80;;;13.62;;
58982;SDS011;44771;49.982;8.560;2023-05-23T23:13:07;17.92;;;14.18;;
58982;SDS011;44771;49.982;8.560;2023-05-23T23:18:08;23.62;;;12.55;;
58982;SDS011;44771;49.982;8.560;2023-05-23T23:23:10;16.25;;;12.73;;
58982;SDS011;44771;49.982;8.560;2023-05-23T23:28:14;16.12;;;13.70;;
58982;SDS011;44771;49.982;8.560;2023-05-23T23:33:16;22.05;;;13.70;;
58982;SDS011;44771;49.982;8.560;2023-05-23T23:38:18;14.20;;;12.48;;
58982;SDS011;44771;49.982;8.560;2023-05-23T23:43:21;15.23;;;13.68;;
58982;SDS011;44771;49.982;8.560;2023-05-23T23:48:22;20.33;;;14.73;;
58982;SDS011;44771;49.982;8.560;2023-05-23T23:53:24;16.02;;;14.07;;
58982;SDS011;44771;49.982;8.560;2023-05-23T23:58:27;21.20;;;15.90;;
